Vernon, Iowa
Current Conditions -  °F | °C
As of 11:35 AM on Friday 31 Oct 2014 (Local Time) from KFFL Reporting Station
Clear Clear  
Wind Chill: 28°   Ceiling: Unl
Heat Index: 37°   Visibility: NA
Dew Point: 19°   Wind: 16mph
Humidity: 48%   Direction: 350°N
Pressure: 30.43"   Gusts: 26mph
Location:  40.7687°N, 92.0788°W
Report Text: KFFL 311635Z AUTO 35014G23KT CLR 03/M07 A3043 RMK AO2
Loading
Personal Weather Stations






























Interactive Weather Map
Tropical Storm Tracking
New forecast layout! Learn more

10-Day Weather Forecast

Advertisements
Track Severe Weather on mobile